sensor_id;sensor_type;location;lat;lon;timestamp;P1;durP1;ratioP1;P2;durP2;ratioP2
8564;SDS011;4320;51.498;6.556;2023-06-22T00:01:47;12.10;;;9.38;;
8564;SDS011;4320;51.498;6.556;2023-06-22T00:04:13;11.93;;;9.20;;
8564;SDS011;4320;51.498;6.556;2023-06-22T00:06:39;10.32;;;8.65;;
8564;SDS011;4320;51.498;6.556;2023-06-22T00:09:04;14.07;;;9.10;;
8564;SDS011;4320;51.498;6.556;2023-06-22T00:11:31;12.73;;;9.77;;
8564;SDS011;4320;51.498;6.556;2023-06-22T00:13:58;11.90;;;10.65;;
8564;SDS011;4320;51.498;6.556;2023-06-22T00:16:24;13.82;;;8.95;;
8564;SDS011;4320;51.498;6.556;2023-06-22T00:18:50;12.38;;;9.65;;
8564;SDS011;4320;51.498;6.556;2023-06-22T00:21:15;14.30;;;9.15;;
8564;SDS011;4320;51.498;6.556;2023-06-22T00:23:41;12.80;;;8.65;;
8564;SDS011;4320;51.498;6.556;2023-06-22T00:26:07;11.65;;;8.60;;
8564;SDS011;4320;51.498;6.556;2023-06-22T00:28:33;15.13;;;9.93;;
8564;SDS011;4320;51.498;6.556;2023-06-22T00:30:59;10.73;;;9.02;;
8564;SDS011;4320;51.498;6.556;2023-06-22T00:33:25;11.93;;;9.32;;
8564;SDS011;4320;51.498;6.556;2023-06-22T00:35:51;12.30;;;9.38;;
8564;SDS011;4320;51.498;6.556;2023-06-22T00:38:18;11.02;;;9.93;;
8564;SDS011;4320;51.498;6.556;2023-06-22T00:40:44;14.43;;;9.93;;
8564;SDS011;4320;51.498;6.556;2023-06-22T00:43:10;12.70;;;9.15;;
8564;SDS011;4320;51.498;6.556;2023-06-22T00:45:36;13.73;;;9.70;;
8564;SDS011;4320;51.498;6.556;2023-06-22T00:48:03;12.95;;;9.68;;
8564;SDS011;4320;51.498;6.556;2023-06-22T00:50:31;12.95;;;9.75;;
8564;SDS011;4320;51.498;6.556;2023-06-22T00:52:59;13.93;;;10.10;;
8564;SDS011;4320;51.498;6.556;2023-06-22T00:55:38;12.48;;;10.73;;
8564;SDS011;4320;51.498;6.556;2023-06-22T00:58:08;11.90;;;10.65;;
8564;SDS011;4320;51.498;6.556;2023-06-22T01:00:35;14.00;;;10.15;;
8564;SDS011;4320;51.498;6.556;2023-06-22T01:03:02;10.82;;;9.75;;
8564;SDS011;4320;51.498;6.556;2023-06-22T01:05:28;12.93;;;10.13;;
8564;SDS011;4320;51.498;6.556;2023-06-22T01:13:16;11.85;;;9.55;;
8564;SDS011;4320;51.498;6.556;2023-06-22T01:16:00;15.32;;;9.90;;
8564;SDS011;4320;51.498;6.556;2023-06-22T01:18:40;12.35;;;10.68;;
8564;SDS011;4320;51.498;6.556;2023-06-22T01:21:07;11.40;;;10.15;;
8564;SDS011;4320;51.498;6.556;2023-06-22T01:26:36;13.57;;;10.90;;
8564;SDS011;4320;51.498;6.556;2023-06-22T01:29:23;14.50;;;11.52;;
8564;SDS011;4320;51.498;6.556;2023-06-22T01:31:51;11.32;;;10.13;;
8564;SDS011;4320;51.498;6.556;2023-06-22T01:34:21;11.68;;;10.38;;
8564;SDS011;4320;51.498;6.556;2023-06-22T01:36:48;13.23;;;10.60;;
8564;SDS011;4320;51.498;6.556;2023-06-22T01:39:15;14.88;;;10.18;;
8564;SDS011;4320;51.498;6.556;2023-06-22T01:41:42;16.17;;;11.05;;
8564;SDS011;4320;51.498;6.556;2023-06-22T01:44:09;13.98;;;11.38;;
8564;SDS011;4320;51.498;6.556;2023-06-22T01:46:36;12.32;;;10.75;;
8564;SDS011;4320;51.498;6.556;2023-06-22T01:49:03;13.05;;;11.43;;
8564;SDS011;4320;51.498;6.556;2023-06-22T01:51:30;13.40;;;10.70;;
8564;SDS011;4320;51.498;6.556;2023-06-22T01:53:56;13.82;;;10.98;;
8564;SDS011;4320;51.498;6.556;2023-06-22T01:56:22;11.80;;;10.60;;
8564;SDS011;4320;51.498;6.556;2023-06-22T01:59:02;15.88;;;11.63;;
8564;SDS011;4320;51.498;6.556;2023-06-22T02:01:43;12.68;;;10.73;;
8564;SDS011;4320;51.498;6.556;2023-06-22T02:04:19;13.48;;;10.55;;
8564;SDS011;4320;51.498;6.556;2023-06-22T02:06:49;15.65;;;11.52;;
8564;SDS011;4320;51.498;6.556;2023-06-22T02:09:20;15.30;;;11.18;;
8564;SDS011;4320;51.498;6.556;2023-06-22T02:11:47;14.48;;;11.48;;
8564;SDS011;4320;51.498;6.556;2023-06-22T02:14:18;12.82;;;11.07;;
8564;SDS011;4320;51.498;6.556;2023-06-22T02:16:45;16.25;;;10.65;;
8564;SDS011;4320;51.498;6.556;2023-06-22T02:19:11;12.18;;;10.88;;
8564;SDS011;4320;51.498;6.556;2023-06-22T02:21:37;12.95;;;11.25;;
8564;SDS011;4320;51.498;6.556;2023-06-22T02:24:03;14.32;;;10.88;;
8564;SDS011;4320;51.498;6.556;2023-06-22T02:26:29;13.07;;;11.50;;
8564;SDS011;4320;51.498;6.556;2023-06-22T02:28:55;13.05;;;11.38;;
8564;SDS011;4320;51.498;6.556;2023-06-22T02:31:21;14.30;;;11.68;;
8564;SDS011;4320;51.498;6.556;2023-06-22T02:33:47;13.25;;;11.63;;
8564;SDS011;4320;51.498;6.556;2023-06-22T02:36:13;13.70;;;11.35;;
8564;SDS011;4320;51.498;6.556;2023-06-22T02:38:42;13.15;;;11.38;;
8564;SDS011;4320;51.498;6.556;2023-06-22T02:41:13;14.55;;;11.35;;
8564;SDS011;4320;51.498;6.556;2023-06-22T02:43:44;14.25;;;11.65;;
8564;SDS011;4320;51.498;6.556;2023-06-22T02:46:10;19.00;;;12.20;;
8564;SDS011;4320;51.498;6.556;2023-06-22T02:48:38;15.68;;;12.70;;
8564;SDS011;4320;51.498;6.556;2023-06-22T02:51:04;14.40;;;11.80;;
8564;SDS011;4320;51.498;6.556;2023-06-22T02:53:29;15.98;;;12.50;;
8564;SDS011;4320;51.498;6.556;2023-06-22T02:55:55;16.13;;;11.93;;
8564;SDS011;4320;51.498;6.556;2023-06-22T02:58:21;17.67;;;12.18;;
8564;SDS011;4320;51.498;6.556;2023-06-22T03:00:46;16.52;;;12.32;;
8564;SDS011;4320;51.498;6.556;2023-06-22T03:03:12;13.95;;;12.48;;
8564;SDS011;4320;51.498;6.556;2023-06-22T03:05:37;14.18;;;12.55;;
8564;SDS011;4320;51.498;6.556;2023-06-22T03:08:05;16.17;;;13.05;;
8564;SDS011;4320;51.498;6.556;2023-06-22T03:10:31;14.27;;;12.88;;
8564;SDS011;4320;51.498;6.556;2023-06-22T03:12:56;15.98;;;12.98;;
8564;SDS011;4320;51.498;6.556;2023-06-22T03:15:22;15.13;;;12.50;;
8564;SDS011;4320;51.498;6.556;2023-06-22T03:17:47;16.35;;;13.75;;
8564;SDS011;4320;51.498;6.556;2023-06-22T03:20:13;20.75;;;13.68;;
8564;SDS011;4320;51.498;6.556;2023-06-22T03:22:39;15.50;;;13.60;;
8564;SDS011;4320;51.498;6.556;2023-06-22T03:25:06;15.52;;;12.88;;
8564;SDS011;4320;51.498;6.556;2023-06-22T03:27:38;14.93;;;13.30;;
8564;SDS011;4320;51.498;6.556;2023-06-22T03:30:05;15.02;;;13.27;;
8564;SDS011;4320;51.498;6.556;2023-06-22T03:32:32;17.40;;;13.20;;
8564;SDS011;4320;51.498;6.556;2023-06-22T03:34:57;16.23;;;14.50;;
8564;SDS011;4320;51.498;6.556;2023-06-22T03:37:24;18.67;;;14.43;;
8564;SDS011;4320;51.498;6.556;2023-06-22T03:39:50;14.60;;;12.98;;
8564;SDS011;4320;51.498;6.556;2023-06-22T03:42:16;16.05;;;14.18;;
8564;SDS011;4320;51.498;6.556;2023-06-22T03:44:42;16.42;;;13.77;;
8564;SDS011;4320;51.498;6.556;2023-06-22T03:47:08;17.80;;;14.75;;
8564;SDS011;4320;51.498;6.556;2023-06-22T03:49:34;17.92;;;14.63;;
8564;SDS011;4320;51.498;6.556;2023-06-22T03:52:00;17.45;;;14.75;;
8564;SDS011;4320;51.498;6.556;2023-06-22T03:54:29;16.42;;;14.25;;
8564;SDS011;4320;51.498;6.556;2023-06-22T03:56:58;20.33;;;15.15;;
8564;SDS011;4320;51.498;6.556;2023-06-22T03:59:24;19.05;;;15.25;;
8564;SDS011;4320;51.498;6.556;2023-06-22T04:01:50;17.58;;;15.68;;
8564;SDS011;4320;51.498;6.556;2023-06-22T04:04:16;19.63;;;14.88;;
8564;SDS011;4320;51.498;6.556;2023-06-22T04:06:43;18.27;;;14.70;;
8564;SDS011;4320;51.498;6.556;2023-06-22T04:09:08;17.20;;;15.10;;
8564;SDS011;4320;51.498;6.556;2023-06-22T04:11:34;21.30;;;15.32;;
8564;SDS011;4320;51.498;6.556;2023-06-22T04:13:59;19.10;;;15.18;;
8564;SDS011;4320;51.498;6.556;2023-06-22T04:16:25;19.50;;;14.93;;
8564;SDS011;4320;51.498;6.556;2023-06-22T04:18:51;19.15;;;15.82;;
8564;SDS011;4320;51.498;6.556;2023-06-22T04:21:16;22.20;;;16.50;;
8564;SDS011;4320;51.498;6.556;2023-06-22T04:23:44;18.00;;;16.08;;
8564;SDS011;4320;51.498;6.556;2023-06-22T04:26:11;18.10;;;15.90;;
8564;SDS011;4320;51.498;6.556;2023-06-22T04:28:36;17.42;;;15.57;;
8564;SDS011;4320;51.498;6.556;2023-06-22T04:31:02;18.95;;;15.30;;
8564;SDS011;4320;51.498;6.556;2023-06-22T04:33:28;18.98;;;15.05;;
8564;SDS011;4320;51.498;6.556;2023-06-22T04:35:54;19.88;;;15.55;;
8564;SDS011;4320;51.498;6.556;2023-06-22T04:38:22;16.90;;;15.10;;
8564;SDS011;4320;51.498;6.556;2023-06-22T04:40:48;17.90;;;15.95;;
8564;SDS011;4320;51.498;6.556;2023-06-22T04:43:15;19.13;;;15.45;;
8564;SDS011;4320;51.498;6.556;2023-06-22T04:45:40;18.60;;;15.85;;
8564;SDS011;4320;51.498;6.556;2023-06-22T04:48:06;18.73;;;15.70;;
8564;SDS011;4320;51.498;6.556;2023-06-22T04:50:33;17.75;;;15.95;;
8564;SDS011;4320;51.498;6.556;2023-06-22T04:52:59;20.25;;;16.52;;
8564;SDS011;4320;51.498;6.556;2023-06-22T04:55:25;19.83;;;15.82;;
8564;SDS011;4320;51.498;6.556;2023-06-22T04:57:50;18.38;;;15.85;;
8564;SDS011;4320;51.498;6.556;2023-06-22T05:00:17;17.80;;;15.43;;
8564;SDS011;4320;51.498;6.556;2023-06-22T05:02:44;19.92;;;16.23;;
8564;SDS011;4320;51.498;6.556;2023-06-22T05:05:11;18.92;;;16.45;;
8564;SDS011;4320;51.498;6.556;2023-06-22T05:07:44;17.67;;;15.88;;
8564;SDS011;4320;51.498;6.556;2023-06-22T05:10:13;17.80;;;15.98;;
8564;SDS011;4320;51.498;6.556;2023-06-22T05:12:39;18.15;;;16.27;;
8564;SDS011;4320;51.498;6.556;2023-06-22T05:15:06;18.35;;;16.45;;
8564;SDS011;4320;51.498;6.556;2023-06-22T05:17:32;23.40;;;17.02;;
8564;SDS011;4320;51.498;6.556;2023-06-22T05:19:58;19.75;;;15.98;;
8564;SDS011;4320;51.498;6.556;2023-06-22T05:22:24;18.80;;;15.63;;
8564;SDS011;4320;51.498;6.556;2023-06-22T05:24:50;19.23;;;15.82;;
8564;SDS011;4320;51.498;6.556;2023-06-22T05:27:15;17.90;;;16.00;;
8564;SDS011;4320;51.498;6.556;2023-06-22T05:29:41;17.65;;;15.80;;
8564;SDS011;4320;51.498;6.556;2023-06-22T05:32:10;18.52;;;16.33;;
8564;SDS011;4320;51.498;6.556;2023-06-22T05:34:35;21.27;;;16.02;;
8564;SDS011;4320;51.498;6.556;2023-06-22T05:37:02;17.13;;;15.23;;
8564;SDS011;4320;51.498;6.556;2023-06-22T05:39:28;17.65;;;15.82;;
8564;SDS011;4320;51.498;6.556;2023-06-22T05:41:53;20.75;;;16.77;;
8564;SDS011;4320;51.498;6.556;2023-06-22T05:44:19;22.25;;;16.98;;
8564;SDS011;4320;51.498;6.556;2023-06-22T05:46:45;18.25;;;16.20;;
8564;SDS011;4320;51.498;6.556;2023-06-22T05:49:13;19.52;;;16.38;;
8564;SDS011;4320;51.498;6.556;2023-06-22T05:51:40;21.00;;;16.40;;
8564;SDS011;4320;51.498;6.556;2023-06-22T05:54:06;18.05;;;16.23;;
8564;SDS011;4320;51.498;6.556;2023-06-22T05:56:33;20.48;;;17.27;;
8564;SDS011;4320;51.498;6.556;2023-06-22T05:58:58;21.02;;;17.08;;
8564;SDS011;4320;51.498;6.556;2023-06-22T06:01:24;20.88;;;16.67;;
8564;SDS011;4320;51.498;6.556;2023-06-22T06:03:51;22.65;;;17.10;;
8564;SDS011;4320;51.498;6.556;2023-06-22T06:06:17;20.17;;;17.48;;
8564;SDS011;4320;51.498;6.556;2023-06-22T06:08:46;19.38;;;17.35;;
8564;SDS011;4320;51.498;6.556;2023-06-22T06:11:12;19.45;;;17.45;;
8564;SDS011;4320;51.498;6.556;2023-06-22T06:13:37;23.75;;;17.17;;
8564;SDS011;4320;51.498;6.556;2023-06-22T06:16:03;20.23;;;17.65;;
8564;SDS011;4320;51.498;6.556;2023-06-22T06:18:29;19.95;;;17.48;;
8564;SDS011;4320;51.498;6.556;2023-06-22T06:20:54;21.75;;;18.95;;
8564;SDS011;4320;51.498;6.556;2023-06-22T06:23:20;19.27;;;17.17;;
8564;SDS011;4320;51.498;6.556;2023-06-22T06:25:48;21.10;;;17.00;;
8564;SDS011;4320;51.498;6.556;2023-06-22T06:28:14;18.98;;;17.02;;
8564;SDS011;4320;51.498;6.556;2023-06-22T06:30:40;20.92;;;18.48;;
8564;SDS011;4320;51.498;6.556;2023-06-22T06:33:06;21.27;;;18.02;;
8564;SDS011;4320;51.498;6.556;2023-06-22T06:35:33;22.20;;;19.75;;
8564;SDS011;4320;51.498;6.556;2023-06-22T06:38:00;21.85;;;18.42;;
8564;SDS011;4320;51.498;6.556;2023-06-22T06:40:25;23.83;;;18.17;;
8564;SDS011;4320;51.498;6.556;2023-06-22T06:42:51;23.13;;;19.25;;
8564;SDS011;4320;51.498;6.556;2023-06-22T06:45:18;26.20;;;19.85;;
8564;SDS011;4320;51.498;6.556;2023-06-22T06:47:47;19.13;;;17.05;;
8564;SDS011;4320;51.498;6.556;2023-06-22T06:50:14;20.67;;;16.98;;
8564;SDS011;4320;51.498;6.556;2023-06-22T06:52:40;20.67;;;18.02;;
8564;SDS011;4320;51.498;6.556;2023-06-22T06:55:06;20.88;;;17.75;;
8564;SDS011;4320;51.498;6.556;2023-06-22T06:57:33;20.80;;;17.40;;
8564;SDS011;4320;51.498;6.556;2023-06-22T06:59:59;18.52;;;16.52;;
8564;SDS011;4320;51.498;6.556;2023-06-22T07:02:25;18.77;;;16.88;;
8564;SDS011;4320;51.498;6.556;2023-06-22T07:04:52;19.80;;;16.58;;
8564;SDS011;4320;51.498;6.556;2023-06-22T07:07:20;18.15;;;16.25;;
8564;SDS011;4320;51.498;6.556;2023-06-22T07:09:45;19.15;;;16.45;;
8564;SDS011;4320;51.498;6.556;2023-06-22T07:12:11;18.98;;;16.10;;
8564;SDS011;4320;51.498;6.556;2023-06-22T07:14:37;18.70;;;16.67;;
8564;SDS011;4320;51.498;6.556;2023-06-22T07:17:03;21.38;;;16.52;;
8564;SDS011;4320;51.498;6.556;2023-06-22T07:19:28;22.15;;;16.52;;
8564;SDS011;4320;51.498;6.556;2023-06-22T07:21:55;21.48;;;17.10;;
8564;SDS011;4320;51.498;6.556;2023-06-22T07:24:21;18.33;;;16.15;;
8564;SDS011;4320;51.498;6.556;2023-06-22T07:26:47;22.80;;;16.27;;
8564;SDS011;4320;51.498;6.556;2023-06-22T07:29:14;19.27;;;16.75;;
8564;SDS011;4320;51.498;6.556;2023-06-22T07:31:43;19.60;;;17.10;;
8564;SDS011;4320;51.498;6.556;2023-06-22T07:34:09;22.38;;;17.88;;
8564;SDS011;4320;51.498;6.556;2023-06-22T07:36:35;22.38;;;17.83;;
8564;SDS011;4320;51.498;6.556;2023-06-22T07:39:04;21.15;;;18.20;;
8564;SDS011;4320;51.498;6.556;2023-06-22T07:41:30;20.80;;;18.08;;
8564;SDS011;4320;51.498;6.556;2023-06-22T07:43:56;20.13;;;16.90;;
8564;SDS011;4320;51.498;6.556;2023-06-22T07:46:22;24.08;;;18.23;;
8564;SDS011;4320;51.498;6.556;2023-06-22T07:48:48;23.15;;;17.33;;
8564;SDS011;4320;51.498;6.556;2023-06-22T07:51:13;19.02;;;17.13;;
8564;SDS011;4320;51.498;6.556;2023-06-22T07:53:43;18.27;;;16.48;;
8564;SDS011;4320;51.498;6.556;2023-06-22T07:56:12;19.40;;;16.67;;
8564;SDS011;4320;51.498;6.556;2023-06-22T07:58:38;18.42;;;16.45;;
8564;SDS011;4320;51.498;6.556;2023-06-22T08:01:04;20.33;;;17.50;;
8564;SDS011;4320;51.498;6.556;2023-06-22T08:03:31;18.95;;;16.40;;
8564;SDS011;4320;51.498;6.556;2023-06-22T08:05:56;24.48;;;17.17;;
8564;SDS011;4320;51.498;6.556;2023-06-22T08:08:23;19.02;;;16.60;;
8564;SDS011;4320;51.498;6.556;2023-06-22T08:10:48;19.52;;;17.58;;
8564;SDS011;4320;51.498;6.556;2023-06-22T08:13:14;19.75;;;17.02;;
8564;SDS011;4320;51.498;6.556;2023-06-22T08:15:40;23.45;;;15.70;;
8564;SDS011;4320;51.498;6.556;2023-06-22T08:18:05;20.42;;;17.40;;
8564;SDS011;4320;51.498;6.556;2023-06-22T08:20:31;20.02;;;17.40;;
8564;SDS011;4320;51.498;6.556;2023-06-22T08:22:57;21.15;;;17.67;;
8564;SDS011;4320;51.498;6.556;2023-06-22T08:25:25;20.20;;;17.15;;
8564;SDS011;4320;51.498;6.556;2023-06-22T08:27:50;19.33;;;16.83;;
8564;SDS011;4320;51.498;6.556;2023-06-22T08:30:16;21.08;;;18.88;;
8564;SDS011;4320;51.498;6.556;2023-06-22T08:32:43;20.35;;;17.70;;
8564;SDS011;4320;51.498;6.556;2023-06-22T08:35:09;19.98;;;17.88;;
8564;SDS011;4320;51.498;6.556;2023-06-22T08:37:35;19.92;;;17.70;;
8564;SDS011;4320;51.498;6.556;2023-06-22T08:40:04;26.17;;;18.13;;
8564;SDS011;4320;51.498;6.556;2023-06-22T08:42:35;21.17;;;17.67;;
8564;SDS011;4320;51.498;6.556;2023-06-22T08:45:01;20.27;;;17.73;;
8564;SDS011;4320;51.498;6.556;2023-06-22T08:47:27;20.35;;;16.83;;
8564;SDS011;4320;51.498;6.556;2023-06-22T08:49:53;19.85;;;17.85;;
8564;SDS011;4320;51.498;6.556;2023-06-22T08:52:19;23.17;;;18.48;;
8564;SDS011;4320;51.498;6.556;2023-06-22T08:54:45;25.52;;;17.80;;
8564;SDS011;4320;51.498;6.556;2023-06-22T08:57:11;22.92;;;17.90;;
8564;SDS011;4320;51.498;6.556;2023-06-22T08:59:37;24.67;;;17.27;;
8564;SDS011;4320;51.498;6.556;2023-06-22T09:02:03;21.85;;;17.50;;
8564;SDS011;4320;51.498;6.556;2023-06-22T09:04:29;20.00;;;17.90;;
8564;SDS011;4320;51.498;6.556;2023-06-22T09:06:54;20.45;;;17.35;;
8564;SDS011;4320;51.498;6.556;2023-06-22T09:09:20;19.27;;;17.15;;
8564;SDS011;4320;51.498;6.556;2023-06-22T09:11:46;19.65;;;17.30;;
8564;SDS011;4320;51.498;6.556;2023-06-22T09:14:12;22.83;;;17.23;;
8564;SDS011;4320;51.498;6.556;2023-06-22T09:16:38;18.45;;;16.50;;
8564;SDS011;4320;51.498;6.556;2023-06-22T09:19:03;21.15;;;17.05;;
8564;SDS011;4320;51.498;6.556;2023-06-22T09:21:29;18.70;;;16.70;;
8564;SDS011;4320;51.498;6.556;2023-06-22T09:23:55;18.67;;;16.30;;
8564;SDS011;4320;51.498;6.556;2023-06-22T09:26:21;21.42;;;17.17;;
8564;SDS011;4320;51.498;6.556;2023-06-22T09:28:50;18.40;;;16.50;;
8564;SDS011;4320;51.498;6.556;2023-06-22T09:31:16;21.25;;;16.52;;
8564;SDS011;4320;51.498;6.556;2023-06-22T09:33:42;19.40;;;16.05;;
8564;SDS011;4320;51.498;6.556;2023-06-22T09:36:08;21.75;;;16.30;;
8564;SDS011;4320;51.498;6.556;2023-06-22T09:38:37;18.55;;;15.77;;
8564;SDS011;4320;51.498;6.556;2023-06-22T09:41:03;17.30;;;15.23;;
8564;SDS011;4320;51.498;6.556;2023-06-22T09:43:30;18.92;;;16.90;;
8564;SDS011;4320;51.498;6.556;2023-06-22T09:45:57;20.52;;;16.10;;
8564;SDS011;4320;51.498;6.556;2023-06-22T09:48:23;20.40;;;16.00;;
8564;SDS011;4320;51.498;6.556;2023-06-22T09:50:48;19.67;;;15.30;;
8564;SDS011;4320;51.498;6.556;2023-06-22T09:53:14;19.17;;;16.50;;
8564;SDS011;4320;51.498;6.556;2023-06-22T09:55:40;17.55;;;15.73;;
8564;SDS011;4320;51.498;6.556;2023-06-22T09:58:05;21.70;;;16.67;;
8564;SDS011;4320;51.498;6.556;2023-06-22T10:00:31;18.05;;;15.88;;
8564;SDS011;4320;51.498;6.556;2023-06-22T10:02:57;16.83;;;15.02;;
8564;SDS011;4320;51.498;6.556;2023-06-22T10:05:22;19.88;;;16.58;;
8564;SDS011;4320;51.498;6.556;2023-06-22T10:07:48;17.38;;;14.98;;
8564;SDS011;4320;51.498;6.556;2023-06-22T10:10:14;16.67;;;14.82;;
8564;SDS011;4320;51.498;6.556;2023-06-22T10:13:13;19.85;;;14.88;;
8564;SDS011;4320;51.498;6.556;2023-06-22T10:15:35;18.10;;;16.20;;
8564;SDS011;4320;51.498;6.556;2023-06-22T10:18:00;17.08;;;15.27;;
8564;SDS011;4320;51.498;6.556;2023-06-22T10:20:26;19.42;;;14.45;;
8564;SDS011;4320;51.498;6.556;2023-06-22T10:22:53;20.20;;;15.45;;
8564;SDS011;4320;51.498;6.556;2023-06-22T10:25:18;21.00;;;16.23;;
8564;SDS011;4320;51.498;6.556;2023-06-22T10:27:44;16.85;;;15.02;;
8564;SDS011;4320;51.498;6.556;2023-06-22T10:30:10;17.75;;;15.85;;
8564;SDS011;4320;51.498;6.556;2023-06-22T10:32:41;22.25;;;16.25;;
8564;SDS011;4320;51.498;6.556;2023-06-22T10:35:10;17.45;;;15.63;;
8564;SDS011;4320;51.498;6.556;2023-06-22T10:37:36;18.00;;;15.65;;
8564;SDS011;4320;51.498;6.556;2023-06-22T10:40:01;18.35;;;15.60;;
8564;SDS011;4320;51.498;6.556;2023-06-22T10:42:29;18.42;;;16.42;;
8564;SDS011;4320;51.498;6.556;2023-06-22T10:44:54;17.83;;;15.90;;
8564;SDS011;4320;51.498;6.556;2023-06-22T10:47:20;17.15;;;15.30;;
8564;SDS011;4320;51.498;6.556;2023-06-22T10:49:45;19.27;;;15.45;;
8564;SDS011;4320;51.498;6.556;2023-06-22T10:52:11;17.20;;;15.43;;
8564;SDS011;4320;51.498;6.556;2023-06-22T10:54:37;18.60;;;16.67;;
8564;SDS011;4320;51.498;6.556;2023-06-22T10:57:03;20.92;;;16.02;;
8564;SDS011;4320;51.498;6.556;2023-06-22T10:59:29;20.85;;;16.55;;
8564;SDS011;4320;51.498;6.556;2023-06-22T11:01:55;19.42;;;17.33;;
8564;SDS011;4320;51.498;6.556;2023-06-22T11:04:22;17.85;;;15.52;;
8564;SDS011;4320;51.498;6.556;2023-06-22T11:06:48;19.35;;;17.20;;
8564;SDS011;4320;51.498;6.556;2023-06-22T11:09:14;18.05;;;16.17;;
8564;SDS011;4320;51.498;6.556;2023-06-22T11:11:49;19.35;;;16.02;;
8564;SDS011;4320;51.498;6.556;2023-06-22T11:14:19;19.83;;;17.52;;
8564;SDS011;4320;51.498;6.556;2023-06-22T11:16:46;20.15;;;17.73;;
8564;SDS011;4320;51.498;6.556;2023-06-22T11:19:11;18.92;;;16.88;;
8564;SDS011;4320;51.498;6.556;2023-06-22T11:21:37;19.77;;;17.65;;
8564;SDS011;4320;51.498;6.556;2023-06-22T11:24:03;20.05;;;17.95;;
8564;SDS011;4320;51.498;6.556;2023-06-22T11:26:29;19.25;;;17.15;;
8564;SDS011;4320;51.498;6.556;2023-06-22T11:28:55;22.40;;;18.13;;
8564;SDS011;4320;51.498;6.556;2023-06-22T11:31:20;20.75;;;18.27;;
8564;SDS011;4320;51.498;6.556;2023-06-22T11:33:46;20.45;;;18.40;;
8564;SDS011;4320;51.498;6.556;2023-06-22T11:36:13;21.98;;;19.35;;
8564;SDS011;4320;51.498;6.556;2023-06-22T11:38:39;21.00;;;18.75;;
8564;SDS011;4320;51.498;6.556;2023-06-22T11:41:08;22.55;;;19.88;;
8564;SDS011;4320;51.498;6.556;2023-06-22T11:43:34;26.80;;;20.42;;
8564;SDS011;4320;51.498;6.556;2023-06-22T11:46:01;22.98;;;20.58;;
8564;SDS011;4320;51.498;6.556;2023-06-22T11:48:28;22.38;;;20.00;;
8564;SDS011;4320;51.498;6.556;2023-06-22T11:50:53;28.10;;;21.25;;
8564;SDS011;4320;51.498;6.556;2023-06-22T11:53:20;30.63;;;24.23;;
8564;SDS011;4320;51.498;6.556;2023-06-22T11:55:46;30.70;;;25.45;;
8564;SDS011;4320;51.498;6.556;2023-06-22T11:58:12;35.53;;;28.33;;
8564;SDS011;4320;51.498;6.556;2023-06-22T12:00:38;43.30;;;32.05;;
8564;SDS011;4320;51.498;6.556;2023-06-22T12:03:03;38.33;;;31.38;;
8564;SDS011;4320;51.498;6.556;2023-06-22T12:05:29;45.30;;;32.20;;
8564;SDS011;4320;51.498;6.556;2023-06-22T12:07:55;36.22;;;30.60;;
8564;SDS011;4320;51.498;6.556;2023-06-22T12:10:21;42.67;;;32.63;;
8564;SDS011;4320;51.498;6.556;2023-06-22T12:12:47;38.75;;;32.35;;
8564;SDS011;4320;51.498;6.556;2023-06-22T12:15:13;47.25;;;36.08;;
8564;SDS011;4320;51.498;6.556;2023-06-22T12:17:38;40.55;;;32.28;;
8564;SDS011;4320;51.498;6.556;2023-06-22T12:20:05;43.28;;;33.90;;
8564;SDS011;4320;51.498;6.556;2023-06-22T12:22:32;38.70;;;31.58;;
8564;SDS011;4320;51.498;6.556;2023-06-22T12:24:57;40.85;;;33.85;;
8564;SDS011;4320;51.498;6.556;2023-06-22T12:27:25;37.95;;;31.75;;
8564;SDS011;4320;51.498;6.556;2023-06-22T12:29:51;40.00;;;32.90;;
8564;SDS011;4320;51.498;6.556;2023-06-22T12:32:17;36.63;;;32.53;;
8564;SDS011;4320;51.498;6.556;2023-06-22T12:34:43;37.15;;;31.83;;
8564;SDS011;4320;51.498;6.556;2023-06-22T12:37:09;33.35;;;29.75;;
8564;SDS011;4320;51.498;6.556;2023-06-22T12:39:35;34.92;;;29.60;;
8564;SDS011;4320;51.498;6.556;2023-06-22T12:42:00;34.35;;;30.65;;
8564;SDS011;4320;51.498;6.556;2023-06-22T12:44:26;33.08;;;29.35;;
8564;SDS011;4320;51.498;6.556;2023-06-22T12:46:52;32.53;;;28.08;;
8564;SDS011;4320;51.498;6.556;2023-06-22T12:49:17;32.85;;;27.70;;
8564;SDS011;4320;51.498;6.556;2023-06-22T12:51:43;30.70;;;27.42;;
8564;SDS011;4320;51.498;6.556;2023-06-22T12:54:10;35.50;;;29.00;;
8564;SDS011;4320;51.498;6.556;2023-06-22T12:56:36;32.45;;;29.08;;
8564;SDS011;4320;51.498;6.556;2023-06-22T12:59:03;30.90;;;27.70;;
8564;SDS011;4320;51.498;6.556;2023-06-22T13:01:29;29.75;;;26.67;;
8564;SDS011;4320;51.498;6.556;2023-06-22T13:03:56;31.02;;;25.45;;
8564;SDS011;4320;51.498;6.556;2023-06-22T13:06:23;29.15;;;26.08;;
8564;SDS011;4320;51.498;6.556;2023-06-22T13:08:48;31.88;;;28.60;;
8564;SDS011;4320;51.498;6.556;2023-06-22T13:11:14;31.08;;;27.77;;
8564;SDS011;4320;51.498;6.556;2023-06-22T13:13:40;30.73;;;27.52;;
8564;SDS011;4320;51.498;6.556;2023-06-22T13:16:05;28.40;;;25.17;;
8564;SDS011;4320;51.498;6.556;2023-06-22T13:18:31;29.02;;;25.42;;
8564;SDS011;4320;51.498;6.556;2023-06-22T13:20:58;29.05;;;26.08;;
8564;SDS011;4320;51.498;6.556;2023-06-22T13:23:25;31.88;;;25.85;;
8564;SDS011;4320;51.498;6.556;2023-06-22T13:25:51;30.20;;;27.10;;
8564;SDS011;4320;51.498;6.556;2023-06-22T13:28:16;30.23;;;27.08;;
8564;SDS011;4320;51.498;6.556;2023-06-22T13:30:42;31.52;;;27.23;;
8564;SDS011;4320;51.498;6.556;2023-06-22T13:33:10;34.47;;;27.40;;
8564;SDS011;4320;51.498;6.556;2023-06-22T13:35:36;29.08;;;25.83;;
8564;SDS011;4320;51.498;6.556;2023-06-22T13:38:02;31.38;;;26.83;;
8564;SDS011;4320;51.498;6.556;2023-06-22T13:40:28;31.25;;;27.05;;
8564;SDS011;4320;51.498;6.556;2023-06-22T13:42:54;33.58;;;28.23;;
8564;SDS011;4320;51.498;6.556;2023-06-22T13:45:20;32.95;;;29.20;;
8564;SDS011;4320;51.498;6.556;2023-06-22T13:47:46;30.85;;;27.38;;
8564;SDS011;4320;51.498;6.556;2023-06-22T13:50:12;31.65;;;28.23;;
8564;SDS011;4320;51.498;6.556;2023-06-22T13:52:38;31.30;;;27.98;;
8564;SDS011;4320;51.498;6.556;2023-06-22T13:55:04;31.55;;;28.23;;
8564;SDS011;4320;51.498;6.556;2023-06-22T13:57:30;32.88;;;29.10;;
8564;SDS011;4320;51.498;6.556;2023-06-22T13:59:56;33.55;;;29.38;;
8564;SDS011;4320;51.498;6.556;2023-06-22T14:02:22;31.33;;;27.90;;
8564;SDS011;4320;51.498;6.556;2023-06-22T14:04:47;31.52;;;28.10;;
8564;SDS011;4320;51.498;6.556;2023-06-22T14:07:13;31.67;;;28.15;;
8564;SDS011;4320;51.498;6.556;2023-06-22T14:09:38;32.80;;;28.98;;
8564;SDS011;4320;51.498;6.556;2023-06-22T14:12:04;30.30;;;27.10;;
8564;SDS011;4320;51.498;6.556;2023-06-22T14:14:31;30.77;;;26.15;;
8564;SDS011;4320;51.498;6.556;2023-06-22T14:16:58;33.85;;;28.80;;
8564;SDS011;4320;51.498;6.556;2023-06-22T14:19:24;30.67;;;27.27;;
8564;SDS011;4320;51.498;6.556;2023-06-22T14:21:49;30.05;;;26.77;;
8564;SDS011;4320;51.498;6.556;2023-06-22T14:24:15;29.80;;;26.45;;
8564;SDS011;4320;51.498;6.556;2023-06-22T14:26:41;30.67;;;27.38;;
8564;SDS011;4320;51.498;6.556;2023-06-22T14:29:06;33.90;;;27.85;;
8564;SDS011;4320;51.498;6.556;2023-06-22T14:31:32;33.03;;;27.08;;
8564;SDS011;4320;51.498;6.556;2023-06-22T14:33:57;32.08;;;27.20;;
8564;SDS011;4320;51.498;6.556;2023-06-22T14:36:23;30.45;;;27.35;;
8564;SDS011;4320;51.498;6.556;2023-06-22T14:38:49;30.92;;;27.05;;
8564;SDS011;4320;51.498;6.556;2023-06-22T14:41:14;30.65;;;26.45;;
8564;SDS011;4320;51.498;6.556;2023-06-22T14:43:49;30.38;;;26.90;;
8564;SDS011;4320;51.498;6.556;2023-06-22T14:46:15;34.95;;;26.63;;
8564;SDS011;4320;51.498;6.556;2023-06-22T14:48:42;30.30;;;26.70;;
8564;SDS011;4320;51.498;6.556;2023-06-22T14:51:08;31.90;;;27.30;;
8564;SDS011;4320;51.498;6.556;2023-06-22T14:53:34;30.67;;;27.35;;